sensor_id;sensor_type;location;lat;lon;timestamp;P1;durP1;ratioP1;P2;durP2;ratioP2
21539;SDS011;10931;52.164;5.518;2023-06-19T00:02:19;7.28;;;5.75;;
21539;SDS011;10931;52.164;5.518;2023-06-19T00:05:12;6.93;;;5.95;;
21539;SDS011;10931;52.164;5.518;2023-06-19T00:10:24;6.80;;;5.55;;
21539;SDS011;10931;52.164;5.518;2023-06-19T00:13:05;6.70;;;5.50;;
21539;SDS011;10931;52.164;5.518;2023-06-19T00:15:51;6.25;;;5.65;;
21539;SDS011;10931;52.164;5.518;2023-06-19T00:18:42;6.63;;;5.50;;
21539;SDS011;10931;52.164;5.518;2023-06-19T00:21:19;6.60;;;5.00;;
21539;SDS011;10931;52.164;5.518;2023-06-19T00:24:01;8.48;;;5.53;;
21539;SDS011;10931;52.164;5.518;2023-06-19T00:27:18;7.85;;;6.15;;
21539;SDS011;10931;52.164;5.518;2023-06-19T00:30:08;7.70;;;5.55;;
21539;SDS011;10931;52.164;5.518;2023-06-19T00:32:48;6.40;;;5.38;;
21539;SDS011;10931;52.164;5.518;2023-06-19T00:35:42;6.90;;;5.63;;
21539;SDS011;10931;52.164;5.518;2023-06-19T00:40:55;6.07;;;5.47;;
21539;SDS011;10931;52.164;5.518;2023-06-19T00:43:22;6.60;;;5.40;;
21539;SDS011;10931;52.164;5.518;2023-06-19T00:45:50;6.57;;;5.50;;
21539;SDS011;10931;52.164;5.518;2023-06-19T00:48:18;6.18;;;5.10;;
21539;SDS011;10931;52.164;5.518;2023-06-19T00:50:44;5.68;;;5.07;;
21539;SDS011;10931;52.164;5.518;2023-06-19T00:53:51;5.75;;;5.03;;
21539;SDS011;10931;52.164;5.518;2023-06-19T00:56:31;7.15;;;5.70;;
21539;SDS011;10931;52.164;5.518;2023-06-19T00:59:06;6.90;;;5.47;;
21539;SDS011;10931;52.164;5.518;2023-06-19T01:01:41;6.35;;;5.07;;
21539;SDS011;10931;52.164;5.518;2023-06-19T01:04:14;6.15;;;5.18;;
21539;SDS011;10931;52.164;5.518;2023-06-19T01:09:49;6.40;;;5.00;;
21539;SDS011;10931;52.164;5.518;2023-06-19T01:12:57;6.82;;;5.28;;
21539;SDS011;10931;52.164;5.518;2023-06-19T01:20:49;6.78;;;5.57;;
21539;SDS011;10931;52.164;5.518;2023-06-19T01:23:37;6.90;;;5.53;;
21539;SDS011;10931;52.164;5.518;2023-06-19T01:26:05;7.50;;;5.88;;
21539;SDS011;10931;52.164;5.518;2023-06-19T01:28:34;5.80;;;5.20;;
21539;SDS011;10931;52.164;5.518;2023-06-19T01:31:18;5.63;;;4.70;;
21539;SDS011;10931;52.164;5.518;2023-06-19T01:33:48;7.07;;;5.65;;
21539;SDS011;10931;52.164;5.518;2023-06-19T01:36:21;5.80;;;4.97;;
21539;SDS011;10931;52.164;5.518;2023-06-19T01:42:04;6.22;;;5.43;;
21539;SDS011;10931;52.164;5.518;2023-06-19T01:44:34;6.00;;;5.20;;
21539;SDS011;10931;52.164;5.518;2023-06-19T01:47:07;5.53;;;4.70;;
21539;SDS011;10931;52.164;5.518;2023-06-19T01:50:03;6.30;;;5.00;;
21539;SDS011;10931;52.164;5.518;2023-06-19T01:52:35;9.40;;;4.55;;
21539;SDS011;10931;52.164;5.518;2023-06-19T01:55:02;6.18;;;4.80;;
21539;SDS011;10931;52.164;5.518;2023-06-19T01:57:31;6.07;;;4.75;;
21539;SDS011;10931;52.164;5.518;2023-06-19T02:00:00;5.90;;;4.80;;
21539;SDS011;10931;52.164;5.518;2023-06-19T02:02:25;5.18;;;4.30;;
21539;SDS011;10931;52.164;5.518;2023-06-19T02:04:54;6.28;;;4.32;;
21539;SDS011;10931;52.164;5.518;2023-06-19T02:10:02;5.82;;;4.53;;
21539;SDS011;10931;52.164;5.518;2023-06-19T02:12:27;5.47;;;4.18;;
21539;SDS011;10931;52.164;5.518;2023-06-19T02:14:53;9.55;;;4.20;;
21539;SDS011;10931;52.164;5.518;2023-06-19T02:17:19;6.15;;;4.03;;
21539;SDS011;10931;52.164;5.518;2023-06-19T02:19:44;6.15;;;4.13;;
21539;SDS011;10931;52.164;5.518;2023-06-19T02:22:10;5.78;;;4.25;;
21539;SDS011;10931;52.164;5.518;2023-06-19T02:24:36;6.80;;;3.83;;
21539;SDS011;10931;52.164;5.518;2023-06-19T02:27:02;4.50;;;3.75;;
21539;SDS011;10931;52.164;5.518;2023-06-19T02:29:28;5.32;;;3.70;;
21539;SDS011;10931;52.164;5.518;2023-06-19T02:31:58;6.65;;;4.30;;
21539;SDS011;10931;52.164;5.518;2023-06-19T02:34:24;3.95;;;3.30;;
21539;SDS011;10931;52.164;5.518;2023-06-19T02:36:51;4.13;;;3.30;;
21539;SDS011;10931;52.164;5.518;2023-06-19T02:39:16;5.70;;;3.80;;
21539;SDS011;10931;52.164;5.518;2023-06-19T02:41:43;5.80;;;4.00;;
21539;SDS011;10931;52.164;5.518;2023-06-19T02:44:11;4.55;;;3.20;;
21539;SDS011;10931;52.164;5.518;2023-06-19T02:46:37;3.90;;;3.17;;
21539;SDS011;10931;52.164;5.518;2023-06-19T02:49:03;3.50;;;2.67;;
21539;SDS011;10931;52.164;5.518;2023-06-19T02:51:28;5.57;;;3.22;;
21539;SDS011;10931;52.164;5.518;2023-06-19T02:53:54;4.53;;;3.35;;
21539;SDS011;10931;52.164;5.518;2023-06-19T02:56:20;4.18;;;3.22;;
21539;SDS011;10931;52.164;5.518;2023-06-19T02:58:46;4.53;;;3.33;;
21539;SDS011;10931;52.164;5.518;2023-06-19T03:01:12;4.10;;;2.85;;
21539;SDS011;10931;52.164;5.518;2023-06-19T03:03:38;6.03;;;3.03;;
21539;SDS011;10931;52.164;5.518;2023-06-19T03:06:05;3.45;;;2.75;;
21539;SDS011;10931;52.164;5.518;2023-06-19T03:08:33;2.95;;;2.65;;
21539;SDS011;10931;52.164;5.518;2023-06-19T03:10:59;3.90;;;2.90;;
21539;SDS011;10931;52.164;5.518;2023-06-19T03:13:26;2.90;;;2.45;;
21539;SDS011;10931;52.164;5.518;2023-06-19T03:15:52;3.50;;;2.53;;
21539;SDS011;10931;52.164;5.518;2023-06-19T03:18:20;3.20;;;2.50;;
21539;SDS011;10931;52.164;5.518;2023-06-19T03:20:45;3.63;;;2.33;;
21539;SDS011;10931;52.164;5.518;2023-06-19T03:23:11;3.15;;;2.63;;
21539;SDS011;10931;52.164;5.518;2023-06-19T03:25:37;3.92;;;2.13;;
21539;SDS011;10931;52.164;5.518;2023-06-19T03:28:07;3.47;;;2.53;;
21539;SDS011;10931;52.164;5.518;2023-06-19T03:30:33;4.30;;;2.53;;
21539;SDS011;10931;52.164;5.518;2023-06-19T03:32:59;2.42;;;2.13;;
21539;SDS011;10931;52.164;5.518;2023-06-19T03:35:25;3.30;;;2.50;;
21539;SDS011;10931;52.164;5.518;2023-06-19T03:37:50;4.57;;;2.90;;
21539;SDS011;10931;52.164;5.518;2023-06-19T03:40:16;2.47;;;2.10;;
21539;SDS011;10931;52.164;5.518;2023-06-19T03:42:42;3.08;;;2.30;;
21539;SDS011;10931;52.164;5.518;2023-06-19T03:45:08;3.60;;;2.17;;
21539;SDS011;10931;52.164;5.518;2023-06-19T03:47:34;3.33;;;2.03;;
21539;SDS011;10931;52.164;5.518;2023-06-19T03:49:59;2.72;;;1.98;;
21539;SDS011;10931;52.164;5.518;2023-06-19T03:52:25;3.20;;;2.22;;
21539;SDS011;10931;52.164;5.518;2023-06-19T03:54:50;2.55;;;1.90;;
21539;SDS011;10931;52.164;5.518;2023-06-19T03:57:16;2.00;;;1.55;;
21539;SDS011;10931;52.164;5.518;2023-06-19T03:59:42;8.00;;;2.13;;
21539;SDS011;10931;52.164;5.518;2023-06-19T04:02:07;2.80;;;2.08;;
21539;SDS011;10931;52.164;5.518;2023-06-19T04:04:33;3.72;;;2.00;;
21539;SDS011;10931;52.164;5.518;2023-06-19T04:06:59;3.67;;;2.22;;
21539;SDS011;10931;52.164;5.518;2023-06-19T04:09:25;3.03;;;2.10;;
21539;SDS011;10931;52.164;5.518;2023-06-19T04:11:51;2.03;;;1.67;;
21539;SDS011;10931;52.164;5.518;2023-06-19T04:14:16;2.35;;;2.00;;
21539;SDS011;10931;52.164;5.518;2023-06-19T04:16:42;2.70;;;2.30;;
21539;SDS011;10931;52.164;5.518;2023-06-19T04:19:07;3.05;;;1.92;;
21539;SDS011;10931;52.164;5.518;2023-06-19T04:21:33;2.63;;;2.03;;
21539;SDS011;10931;52.164;5.518;2023-06-19T04:23:59;3.67;;;2.03;;
21539;SDS011;10931;52.164;5.518;2023-06-19T04:26:24;3.08;;;1.80;;
21539;SDS011;10931;52.164;5.518;2023-06-19T04:28:50;2.75;;;1.95;;
21539;SDS011;10931;52.164;5.518;2023-06-19T04:31:16;4.97;;;2.15;;
21539;SDS011;10931;52.164;5.518;2023-06-19T04:33:45;2.38;;;1.90;;
21539;SDS011;10931;52.164;5.518;2023-06-19T04:36:10;4.03;;;2.40;;
21539;SDS011;10931;52.164;5.518;2023-06-19T04:38:36;3.05;;;2.00;;
21539;SDS011;10931;52.164;5.518;2023-06-19T04:41:04;2.67;;;1.88;;
21539;SDS011;10931;52.164;5.518;2023-06-19T04:43:30;3.08;;;2.15;;
21539;SDS011;10931;52.164;5.518;2023-06-19T04:45:56;3.53;;;2.08;;
21539;SDS011;10931;52.164;5.518;2023-06-19T04:48:21;6.63;;;2.50;;
21539;SDS011;10931;52.164;5.518;2023-06-19T04:50:50;2.88;;;2.00;;
21539;SDS011;10931;52.164;5.518;2023-06-19T04:53:16;3.20;;;2.40;;
21539;SDS011;10931;52.164;5.518;2023-06-19T04:55:42;3.80;;;2.08;;
21539;SDS011;10931;52.164;5.518;2023-06-19T04:58:11;4.65;;;2.03;;
21539;SDS011;10931;52.164;5.518;2023-06-19T05:00:45;3.28;;;2.15;;
21539;SDS011;10931;52.164;5.518;2023-06-19T05:03:18;3.63;;;2.30;;
21539;SDS011;10931;52.164;5.518;2023-06-19T05:05:44;2.90;;;2.00;;
21539;SDS011;10931;52.164;5.518;2023-06-19T05:08:10;3.40;;;2.17;;
21539;SDS011;10931;52.164;5.518;2023-06-19T05:10:37;3.58;;;2.50;;
21539;SDS011;10931;52.164;5.518;2023-06-19T05:13:03;3.08;;;2.40;;
21539;SDS011;10931;52.164;5.518;2023-06-19T05:15:28;2.28;;;1.85;;
21539;SDS011;10931;52.164;5.518;2023-06-19T05:18:03;3.60;;;2.17;;
21539;SDS011;10931;52.164;5.518;2023-06-19T05:20:33;3.03;;;1.80;;
21539;SDS011;10931;52.164;5.518;2023-06-19T05:22:59;2.90;;;2.15;;
21539;SDS011;10931;52.164;5.518;2023-06-19T05:25:24;2.83;;;1.95;;
21539;SDS011;10931;52.164;5.518;2023-06-19T05:27:52;4.68;;;2.15;;
21539;SDS011;10931;52.164;5.518;2023-06-19T05:30:18;2.95;;;2.22;;
21539;SDS011;10931;52.164;5.518;2023-06-19T05:32:43;2.78;;;2.03;;
21539;SDS011;10931;52.164;5.518;2023-06-19T05:35:11;2.38;;;1.88;;
21539;SDS011;10931;52.164;5.518;2023-06-19T05:37:37;3.13;;;1.95;;
21539;SDS011;10931;52.164;5.518;2023-06-19T05:40:04;3.20;;;2.10;;
21539;SDS011;10931;52.164;5.518;2023-06-19T05:42:31;2.97;;;2.13;;
21539;SDS011;10931;52.164;5.518;2023-06-19T05:44:57;1.92;;;1.60;;
21539;SDS011;10931;52.164;5.518;2023-06-19T05:47:24;2.70;;;1.92;;
21539;SDS011;10931;52.164;5.518;2023-06-19T05:49:50;2.75;;;2.17;;
21539;SDS011;10931;52.164;5.518;2023-06-19T05:52:16;2.85;;;1.92;;
21539;SDS011;10931;52.164;5.518;2023-06-19T05:54:42;3.17;;;2.17;;
21539;SDS011;10931;52.164;5.518;2023-06-19T05:57:07;2.25;;;1.80;;
21539;SDS011;10931;52.164;5.518;2023-06-19T05:59:36;2.42;;;1.92;;
21539;SDS011;10931;52.164;5.518;2023-06-19T06:02:02;2.83;;;2.00;;
21539;SDS011;10931;52.164;5.518;2023-06-19T06:04:28;2.92;;;2.28;;
21539;SDS011;10931;52.164;5.518;2023-06-19T06:06:55;3.47;;;2.22;;
21539;SDS011;10931;52.164;5.518;2023-06-19T06:09:21;2.95;;;2.10;;
21539;SDS011;10931;52.164;5.518;2023-06-19T06:11:47;3.42;;;2.10;;
21539;SDS011;10931;52.164;5.518;2023-06-19T06:14:13;2.80;;;2.00;;
21539;SDS011;10931;52.164;5.518;2023-06-19T06:16:40;3.17;;;2.20;;
21539;SDS011;10931;52.164;5.518;2023-06-19T06:19:06;2.58;;;2.20;;
21539;SDS011;10931;52.164;5.518;2023-06-19T06:21:32;3.33;;;2.25;;
21539;SDS011;10931;52.164;5.518;2023-06-19T06:24:02;4.80;;;1.95;;
21539;SDS011;10931;52.164;5.518;2023-06-19T06:26:28;3.00;;;2.33;;
21539;SDS011;10931;52.164;5.518;2023-06-19T06:28:58;4.18;;;2.40;;
21539;SDS011;10931;52.164;5.518;2023-06-19T06:31:26;2.47;;;1.77;;
21539;SDS011;10931;52.164;5.518;2023-06-19T06:34:12;3.38;;;2.20;;
21539;SDS011;10931;52.164;5.518;2023-06-19T06:36:38;3.65;;;2.03;;
21539;SDS011;10931;52.164;5.518;2023-06-19T06:39:09;4.15;;;2.33;;
21539;SDS011;10931;52.164;5.518;2023-06-19T06:41:41;2.78;;;2.15;;
21539;SDS011;10931;52.164;5.518;2023-06-19T06:44:06;4.28;;;2.20;;
21539;SDS011;10931;52.164;5.518;2023-06-19T06:46:32;2.53;;;2.00;;
21539;SDS011;10931;52.164;5.518;2023-06-19T06:48:58;4.65;;;2.55;;
21539;SDS011;10931;52.164;5.518;2023-06-19T06:51:23;3.83;;;2.20;;
21539;SDS011;10931;52.164;5.518;2023-06-19T06:53:49;5.80;;;2.63;;
21539;SDS011;10931;52.164;5.518;2023-06-19T06:56:18;4.82;;;2.53;;
21539;SDS011;10931;52.164;5.518;2023-06-19T06:58:43;3.28;;;2.53;;
21539;SDS011;10931;52.164;5.518;2023-06-19T07:01:11;9.40;;;2.70;;
21539;SDS011;10931;52.164;5.518;2023-06-19T07:03:37;4.65;;;2.63;;
21539;SDS011;10931;52.164;5.518;2023-06-19T07:06:04;4.55;;;2.63;;
21539;SDS011;10931;52.164;5.518;2023-06-19T07:08:30;4.10;;;2.70;;
21539;SDS011;10931;52.164;5.518;2023-06-19T07:10:55;3.20;;;2.47;;
21539;SDS011;10931;52.164;5.518;2023-06-19T07:13:21;4.28;;;2.65;;
21539;SDS011;10931;52.164;5.518;2023-06-19T07:15:47;3.10;;;2.25;;
21539;SDS011;10931;52.164;5.518;2023-06-19T07:18:13;4.35;;;2.75;;
21539;SDS011;10931;52.164;5.518;2023-06-19T07:20:40;5.30;;;3.22;;
21539;SDS011;10931;52.164;5.518;2023-06-19T07:23:08;6.70;;;3.08;;
21539;SDS011;10931;52.164;5.518;2023-06-19T07:25:35;6.80;;;3.05;;
21539;SDS011;10931;52.164;5.518;2023-06-19T07:28:01;4.35;;;3.20;;
21539;SDS011;10931;52.164;5.518;2023-06-19T07:30:29;4.13;;;3.10;;
21539;SDS011;10931;52.164;5.518;2023-06-19T07:32:55;5.88;;;2.92;;
21539;SDS011;10931;52.164;5.518;2023-06-19T07:35:21;5.50;;;3.58;;
21539;SDS011;10931;52.164;5.518;2023-06-19T07:37:46;6.35;;;3.53;;
21539;SDS011;10931;52.164;5.518;2023-06-19T07:40:12;3.65;;;2.83;;
21539;SDS011;10931;52.164;5.518;2023-06-19T07:42:38;6.38;;;3.72;;
21539;SDS011;10931;52.164;5.518;2023-06-19T07:45:04;5.40;;;3.22;;
21539;SDS011;10931;52.164;5.518;2023-06-19T07:47:30;8.48;;;3.30;;
21539;SDS011;10931;52.164;5.518;2023-06-19T07:49:56;5.95;;;3.40;;
21539;SDS011;10931;52.164;5.518;2023-06-19T07:52:21;5.05;;;3.42;;
21539;SDS011;10931;52.164;5.518;2023-06-19T07:57:21;5.10;;;3.72;;
21539;SDS011;10931;52.164;5.518;2023-06-19T07:59:48;8.57;;;3.63;;
21539;SDS011;10931;52.164;5.518;2023-06-19T08:02:32;4.10;;;3.35;;
21539;SDS011;10931;52.164;5.518;2023-06-19T08:05:03;4.40;;;3.55;;
21539;SDS011;10931;52.164;5.518;2023-06-19T08:07:33;4.85;;;3.75;;
21539;SDS011;10931;52.164;5.518;2023-06-19T08:09:58;4.30;;;3.60;;
21539;SDS011;10931;52.164;5.518;2023-06-19T08:12:24;5.63;;;4.15;;
21539;SDS011;10931;52.164;5.518;2023-06-19T08:14:50;7.45;;;4.35;;
21539;SDS011;10931;52.164;5.518;2023-06-19T08:17:16;5.82;;;4.30;;
21539;SDS011;10931;52.164;5.518;2023-06-19T08:19:41;5.18;;;4.18;;
21539;SDS011;10931;52.164;5.518;2023-06-19T08:22:07;4.60;;;3.53;;
21539;SDS011;10931;52.164;5.518;2023-06-19T08:24:33;4.72;;;4.10;;
21539;SDS011;10931;52.164;5.518;2023-06-19T08:27:05;6.82;;;4.45;;
21539;SDS011;10931;52.164;5.518;2023-06-19T08:29:31;6.32;;;4.78;;
21539;SDS011;10931;52.164;5.518;2023-06-19T08:31:57;4.47;;;3.55;;
21539;SDS011;10931;52.164;5.518;2023-06-19T08:34:23;4.95;;;4.45;;
21539;SDS011;10931;52.164;5.518;2023-06-19T08:36:49;7.88;;;4.63;;
21539;SDS011;10931;52.164;5.518;2023-06-19T08:39:14;6.10;;;4.68;;
21539;SDS011;10931;52.164;5.518;2023-06-19T08:41:41;10.90;;;4.20;;
21539;SDS011;10931;52.164;5.518;2023-06-19T08:44:07;6.15;;;4.40;;
21539;SDS011;10931;52.164;5.518;2023-06-19T08:46:33;5.13;;;4.50;;
21539;SDS011;10931;52.164;5.518;2023-06-19T08:49:02;6.40;;;4.80;;
21539;SDS011;10931;52.164;5.518;2023-06-19T08:51:28;6.43;;;4.75;;
21539;SDS011;10931;52.164;5.518;2023-06-19T08:53:55;8.88;;;4.97;;
21539;SDS011;10931;52.164;5.518;2023-06-19T08:56:25;6.22;;;4.95;;
21539;SDS011;10931;52.164;5.518;2023-06-19T08:58:50;7.47;;;5.38;;
21539;SDS011;10931;52.164;5.518;2023-06-19T09:01:17;9.43;;;5.53;;
21539;SDS011;10931;52.164;5.518;2023-06-19T09:03:48;8.25;;;4.85;;
21539;SDS011;10931;52.164;5.518;2023-06-19T09:06:17;7.00;;;5.03;;
21539;SDS011;10931;52.164;5.518;2023-06-19T09:08:43;8.07;;;4.75;;
21539;SDS011;10931;52.164;5.518;2023-06-19T09:11:09;7.97;;;5.53;;
21539;SDS011;10931;52.164;5.518;2023-06-19T09:13:36;8.27;;;5.35;;
21539;SDS011;10931;52.164;5.518;2023-06-19T09:16:10;10.25;;;5.78;;
21539;SDS011;10931;52.164;5.518;2023-06-19T09:18:43;11.50;;;5.63;;
21539;SDS011;10931;52.164;5.518;2023-06-19T09:21:19;8.70;;;5.53;;
21539;SDS011;10931;52.164;5.518;2023-06-19T09:23:48;8.85;;;5.63;;
21539;SDS011;10931;52.164;5.518;2023-06-19T09:26:16;9.88;;;6.60;;
21539;SDS011;10931;52.164;5.518;2023-06-19T09:28:44;8.65;;;5.82;;
21539;SDS011;10931;52.164;5.518;2023-06-19T09:31:10;8.27;;;5.53;;
21539;SDS011;10931;52.164;5.518;2023-06-19T09:33:41;9.55;;;5.75;;
21539;SDS011;10931;52.164;5.518;2023-06-19T09:36:07;8.00;;;6.10;;
21539;SDS011;10931;52.164;5.518;2023-06-19T09:38:34;8.88;;;5.38;;
21539;SDS011;10931;52.164;5.518;2023-06-19T09:41:03;8.55;;;5.85;;
21539;SDS011;10931;52.164;5.518;2023-06-19T09:43:35;8.93;;;6.65;;
21539;SDS011;10931;52.164;5.518;2023-06-19T09:46:03;10.15;;;6.38;;
21539;SDS011;10931;52.164;5.518;2023-06-19T09:48:31;9.15;;;5.90;;
21539;SDS011;10931;52.164;5.518;2023-06-19T09:53:45;7.60;;;6.13;;
21539;SDS011;10931;52.164;5.518;2023-06-19T09:56:12;8.77;;;6.45;;
21539;SDS011;10931;52.164;5.518;2023-06-19T09:58:39;10.90;;;6.68;;
21539;SDS011;10931;52.164;5.518;2023-06-19T10:01:12;9.68;;;5.97;;
21539;SDS011;10931;52.164;5.518;2023-06-19T10:03:43;9.13;;;6.05;;
21539;SDS011;10931;52.164;5.518;2023-06-19T10:06:26;7.40;;;5.65;;
21539;SDS011;10931;52.164;5.518;2023-06-19T10:08:51;7.50;;;6.07;;
21539;SDS011;10931;52.164;5.518;2023-06-19T10:11:17;8.80;;;5.50;;
21539;SDS011;10931;52.164;5.518;2023-06-19T10:13:43;8.13;;;6.57;;
21539;SDS011;10931;52.164;5.518;2023-06-19T10:16:19;10.10;;;7.38;;
21539;SDS011;10931;52.164;5.518;2023-06-19T10:18:46;11.95;;;7.15;;
21539;SDS011;10931;52.164;5.518;2023-06-19T10:21:16;9.55;;;6.22;;
21539;SDS011;10931;52.164;5.518;2023-06-19T10:23:43;9.18;;;6.20;;
21539;SDS011;10931;52.164;5.518;2023-06-19T10:26:28;10.13;;;6.50;;
21539;SDS011;10931;52.164;5.518;2023-06-19T10:28:56;10.30;;;6.38;;
21539;SDS011;10931;52.164;5.518;2023-06-19T10:31:21;8.07;;;6.22;;
21539;SDS011;10931;52.164;5.518;2023-06-19T10:33:47;7.70;;;6.15;;
21539;SDS011;10931;52.164;5.518;2023-06-19T10:36:17;9.13;;;6.63;;
21539;SDS011;10931;52.164;5.518;2023-06-19T10:38:46;10.15;;;6.40;;
21539;SDS011;10931;52.164;5.518;2023-06-19T10:41:28;8.80;;;5.80;;
21539;SDS011;10931;52.164;5.518;2023-06-19T10:43:55;8.45;;;6.85;;
21539;SDS011;10931;52.164;5.518;2023-06-19T10:46:22;9.70;;;6.50;;
21539;SDS011;10931;52.164;5.518;2023-06-19T10:48:52;9.50;;;6.45;;
21539;SDS011;10931;52.164;5.518;2023-06-19T10:51:24;10.45;;;6.13;;
21539;SDS011;10931;52.164;5.518;2023-06-19T10:53:53;9.45;;;6.88;;
21539;SDS011;10931;52.164;5.518;2023-06-19T10:56:22;10.60;;;6.10;;
21539;SDS011;10931;52.164;5.518;2023-06-19T10:58:56;9.55;;;6.63;;
21539;SDS011;10931;52.164;5.518;2023-06-19T11:01:37;8.77;;;6.95;;
21539;SDS011;10931;52.164;5.518;2023-06-19T11:04:05;7.57;;;5.57;;
21539;SDS011;10931;52.164;5.518;2023-06-19T11:06:32;7.88;;;6.00;;
21539;SDS011;10931;52.164;5.518;2023-06-19T11:09:02;8.85;;;5.85;;
21539;SDS011;10931;52.164;5.518;2023-06-19T11:11:51;8.02;;;6.75;;
21539;SDS011;10931;52.164;5.518;2023-06-19T11:14:15;7.80;;;6.13;;
21539;SDS011;10931;52.164;5.518;2023-06-19T11:16:42;6.30;;;5.57;;
21539;SDS011;10931;52.164;5.518;2023-06-19T11:19:13;7.35;;;5.15;;
21539;SDS011;10931;52.164;5.518;2023-06-19T11:21:45;7.63;;;5.90;;
21539;SDS011;10931;52.164;5.518;2023-06-19T11:26:47;10.40;;;5.97;;
21539;SDS011;10931;52.164;5.518;2023-06-19T11:31:44;7.10;;;5.97;;
21539;SDS011;10931;52.164;5.518;2023-06-19T11:34:11;7.68;;;5.80;;
21539;SDS011;10931;52.164;5.518;2023-06-19T11:36:37;7.68;;;6.03;;
21539;SDS011;10931;52.164;5.518;2023-06-19T11:39:03;8.13;;;6.05;;
21539;SDS011;10931;52.164;5.518;2023-06-19T11:41:33;8.95;;;6.30;;
21539;SDS011;10931;52.164;5.518;2023-06-19T11:44:00;6.65;;;5.95;;
21539;SDS011;10931;52.164;5.518;2023-06-19T11:46:28;8.35;;;6.28;;
21539;SDS011;10931;52.164;5.518;2023-06-19T11:49:10;10.80;;;6.78;;
21539;SDS011;10931;52.164;5.518;2023-06-19T11:51:37;8.98;;;6.57;;
21539;SDS011;10931;52.164;5.518;2023-06-19T11:54:07;7.32;;;5.82;;
21539;SDS011;10931;52.164;5.518;2023-06-19T11:56:37;7.95;;;5.88;;
21539;SDS011;10931;52.164;5.518;2023-06-19T11:59:04;7.38;;;6.20;;
21539;SDS011;10931;52.164;5.518;2023-06-19T12:01:33;7.65;;;5.90;;
21539;SDS011;10931;52.164;5.518;2023-06-19T12:04:00;7.85;;;5.70;;
21539;SDS011;10931;52.164;5.518;2023-06-19T12:06:27;8.40;;;6.13;;
21539;SDS011;10931;52.164;5.518;2023-06-19T12:08:53;8.85;;;6.10;;
21539;SDS011;10931;52.164;5.518;2023-06-19T12:11:19;7.82;;;5.80;;
21539;SDS011;10931;52.164;5.518;2023-06-19T12:13:47;7.35;;;6.38;;
21539;SDS011;10931;52.164;5.518;2023-06-19T12:16:13;9.50;;;6.97;;
21539;SDS011;10931;52.164;5.518;2023-06-19T12:18:42;9.77;;;6.93;;
21539;SDS011;10931;52.164;5.518;2023-06-19T12:21:08;9.13;;;6.43;;
21539;SDS011;10931;52.164;5.518;2023-06-19T12:23:34;8.95;;;6.43;;
21539;SDS011;10931;52.164;5.518;2023-06-19T12:25:59;7.78;;;5.95;;
21539;SDS011;10931;52.164;5.518;2023-06-19T12:28:25;8.48;;;6.45;;
21539;SDS011;10931;52.164;5.518;2023-06-19T12:30:52;7.10;;;5.72;;
21539;SDS011;10931;52.164;5.518;2023-06-19T12:33:18;6.53;;;5.60;;
21539;SDS011;10931;52.164;5.518;2023-06-19T12:35:46;7.53;;;6.20;;
21539;SDS011;10931;52.164;5.518;2023-06-19T12:38:15;10.07;;;6.38;;
21539;SDS011;10931;52.164;5.518;2023-06-19T12:40:41;7.38;;;5.57;;
21539;SDS011;10931;52.164;5.518;2023-06-19T12:43:07;8.13;;;6.55;;
21539;SDS011;10931;52.164;5.518;2023-06-19T12:45:32;7.90;;;6.10;;
21539;SDS011;10931;52.164;5.518;2023-06-19T12:47:58;7.82;;;6.22;;
21539;SDS011;10931;52.164;5.518;2023-06-19T12:50:24;7.55;;;6.13;;
21539;SDS011;10931;52.164;5.518;2023-06-19T12:52:50;7.28;;;6.25;;
21539;SDS011;10931;52.164;5.518;2023-06-19T12:55:16;7.95;;;6.18;;
21539;SDS011;10931;52.164;5.518;2023-06-19T12:57:42;7.65;;;6.20;;
21539;SDS011;10931;52.164;5.518;2023-06-19T13:00:10;8.75;;;6.57;;
21539;SDS011;10931;52.164;5.518;2023-06-19T13:02:42;9.60;;;6.78;;
21539;SDS011;10931;52.164;5.518;2023-06-19T13:05:11;10.60;;;7.15;;
21539;SDS011;10931;52.164;5.518;2023-06-19T13:07:37;9.82;;;6.30;;
21539;SDS011;10931;52.164;5.518;2023-06-19T13:10:03;9.20;;;6.25;;
21539;SDS011;10931;52.164;5.518;2023-06-19T13:12:31;7.03;;;6.22;;
21539;SDS011;10931;52.164;5.518;2023-06-19T13:14:57;6.65;;;6.03;;
21539;SDS011;10931;52.164;5.518;2023-06-19T13:17:23;9.07;;;6.55;;
21539;SDS011;10931;52.164;5.518;2023-06-19T13:19:49;9.07;;;6.22;;
21539;SDS011;10931;52.164;5.518;2023-06-19T13:22:15;8.00;;;6.07;;
21539;SDS011;10931;52.164;5.518;2023-06-19T13:24:41;8.20;;;6.15;;
21539;SDS011;10931;52.164;5.518;2023-06-19T13:27:06;6.93;;;5.93;;
21539;SDS011;10931;52.164;5.518;2023-06-19T13:29:32;8.38;;;6.43;;
21539;SDS011;10931;52.164;5.518;2023-06-19T13:32:00;11.98;;;6.38;;
21539;SDS011;10931;52.164;5.518;2023-06-19T13:34:26;8.68;;;6.13;;
21539;SDS011;10931;52.164;5.518;2023-06-19T13:36:52;11.23;;;6.45;;
21539;SDS011;10931;52.164;5.518;2023-06-19T13:39:19;7.75;;;6.05;;
21539;SDS011;10931;52.164;5.518;2023-06-19T13:41:46;7.07;;;5.85;;
21539;SDS011;10931;52.164;5.518;2023-06-19T13:44:12;7.55;;;5.85;;
21539;SDS011;10931;52.164;5.518;2023-06-19T13:46:41;9.90;;;5.82;;
21539;SDS011;10931;52.164;5.518;2023-06-19T13:49:10;7.25;;;5.65;;
21539;SDS011;10931;52.164;5.518;2023-06-19T13:51:47;6.75;;;6.05;;
21539;SDS011;10931;52.164;5.518;2023-06-19T13:54:13;6.82;;;5.80;;
21539;SDS011;10931;52.164;5.518;2023-06-19T13:56:54;8.93;;;6.10;;
21539;SDS011;10931;52.164;5.518;2023-06-19T13:59:19;6.82;;;5.70;;
21539;SDS011;10931;52.164;5.518;2023-06-19T14:01:45;9.55;;;6.38;;
21539;SDS011;10931;52.164;5.518;2023-06-19T14:04:11;8.98;;;6.40;;
21539;SDS011;10931;52.164;5.518;2023-06-19T14:06:37;9.20;;;5.93;;
21539;SDS011;10931;52.164;5.518;2023-06-19T14:09:03;9.00;;;5.85;;
21539;SDS011;10931;52.164;5.518;2023-06-19T14:11:29;8.05;;;6.15;;
21539;SDS011;10931;52.164;5.518;2023-06-19T14:13:54;6.85;;;5.82;;
21539;SDS011;10931;52.164;5.518;2023-06-19T14:16:20;7.35;;;6.40;;
21539;SDS011;10931;52.164;5.518;2023-06-19T14:18:46;6.65;;;5.15;;
21539;SDS011;10931;52.164;5.518;2023-06-19T14:21:12;8.43;;;6.40;;
21539;SDS011;10931;52.164;5.518;2023-06-19T14:23:41;10.77;;;6.60;;
21539;SDS011;10931;52.164;5.518;2023-06-19T14:26:09;8.60;;;5.93;;
21539;SDS011;10931;52.164;5.518;2023-06-19T14:28:40;6.78;;;5.68;;
21539;SDS011;10931;52.164;5.518;2023-06-19T14:31:08;6.85;;;5.47;;
21539;SDS011;10931;52.164;5.518;2023-06-19T14:33:34;8.25;;;6.32;;
21539;SDS011;10931;52.164;5.518;2023-06-19T14:36:01;10.23;;;6.25;;
21539;SDS011;10931;52.164;5.518;2023-06-19T14:38:32;6.97;;;6.00;;
21539;SDS011;10931;52.164;5.518;2023-06-19T14:41:02;6.60;;;5.68;;
21539;SDS011;10931;52.164;5.518;2023-06-19T14:43:28;6.93;;;6.22;;
21539;SDS011;10931;52.164;5.518;2023-06-19T14:45:55;7.72;;;5.97;;
21539;SDS011;10931;52.164;5.518;2023-06-19T14:48:33;7.68;;;5.68;;
21539;SDS011;10931;52.164;5.518;2023-06-19T14:50:58;7.38;;;5.80;;
21539;SDS011;10931;52.164;5.518;2023-06-19T14:53:25;7.32;;;5.90;;
21539;SDS011;10931;52.164;5.518;2023-06-19T14:55:51;7.55;;;5.70;;
21539;SDS011;10931;52.164;5.518;2023-06-19T14:58:16;7.53;;;6.05;;
21539;SDS011;10931;52.164;5.518;2023-06-19T15:00:42;8.45;;;5.90;;
21539;SDS011;10931;52.164;5.518;2023-06-19T15:03:08;6.60;;;5.25;;
21539;SDS011;10931;52.164;5.518;2023-06-19T15:05:34;6.57;;;5.82;;
21539;SDS011;10931;52.164;5.518;2023-06-19T15:07:59;7.43;;;5.90;;
21539;SDS011;10931;52.164;5.518;2023-06-19T15:10:26;6.95;;;5.95;;
21539;SDS011;10931;52.164;5.518;2023-06-19T15:12:52;6.45;;;5.20;;
21539;SDS011;10931;52.164;5.518;2023-06-19T15:15:18;7.32;;;5.50;;
21539;SDS011;10931;52.164;5.518;2023-06-19T15:17:44;5.85;;;5.25;;
21539;SDS011;10931;52.164;5.518;2023-06-19T15:20:10;8.35;;;5.80;;
21539;SDS011;10931;52.164;5.518;2023-06-19T15:22:36;6.80;;;5.65;;
21539;SDS011;10931;52.164;5.518;2023-06-19T15:25:02;7.43;;;6.22;;
21539;SDS011;10931;52.164;5.518;2023-06-19T15:27:30;7.00;;;5.30;;